createdAt,value
2019-01-15T00:00:35.823Z,0.00
2019-01-15T00:01:35.815Z,0.00
2019-01-15T00:02:35.803Z,0.00
2019-01-15T00:03:35.791Z,0.00
2019-01-15T00:04:35.780Z,0.00
2019-01-15T00:05:35.769Z,0.00
2019-01-15T00:06:35.759Z,0.00
2019-01-15T00:07:35.750Z,0.00
2019-01-15T00:08:35.737Z,0.00
2019-01-15T00:09:35.728Z,0.00
2019-01-15T00:10:35.719Z,0.00
2019-01-15T00:11:35.705Z,0.00
2019-01-15T00:12:35.701Z,0.00
2019-01-15T00:13:35.683Z,0.00
2019-01-15T00:14:35.672Z,0.00
2019-01-15T00:15:35.665Z,0.00
2019-01-15T00:16:35.650Z,0.00
2019-01-15T00:17:35.640Z,0.00
2019-01-15T00:18:35.673Z,0.00
2019-01-15T00:19:35.618Z,0.00
2019-01-15T00:20:35.609Z,0.00
2019-01-15T00:21:35.654Z,0.00
2019-01-15T00:22:35.585Z,0.00
2019-01-15T00:23:35.575Z,0.00
2019-01-15T00:24:35.564Z,0.00
2019-01-15T00:25:35.554Z,0.00
2019-01-15T00:26:35.543Z,0.00
2019-01-15T00:27:35.531Z,0.00
2019-01-15T00:28:35.520Z,0.00
2019-01-15T00:29:35.511Z,0.00
2019-01-15T00:30:35.499Z,0.00
2019-01-15T00:31:35.487Z,0.00
2019-01-15T00:32:35.477Z,0.00
2019-01-15T00:33:35.464Z,0.00
2019-01-15T00:34:35.457Z,0.00
2019-01-15T00:35:35.445Z,0.00
2019-01-15T00:36:35.435Z,0.00
2019-01-15T00:37:35.422Z,0.00
2019-01-15T00:38:35.413Z,0.00
2019-01-15T00:39:35.403Z,0.00
2019-01-15T00:40:35.389Z,0.00
2019-01-15T00:41:35.380Z,0.00
2019-01-15T00:42:35.367Z,0.00
2019-01-15T00:43:35.359Z,0.00
2019-01-15T00:44:35.345Z,0.00
2019-01-15T00:45:35.336Z,0.00
2019-01-15T00:46:35.324Z,0.00
2019-01-15T00:47:35.312Z,0.00
2019-01-15T00:48:35.303Z,0.00
2019-01-15T00:49:35.292Z,0.00
2019-01-15T00:50:35.280Z,0.00
2019-01-15T00:51:35.272Z,0.00
2019-01-15T00:52:35.260Z,0.00
2019-01-15T00:53:35.249Z,0.00
2019-01-15T00:54:35.237Z,0.00
2019-01-15T00:55:35.226Z,0.00
2019-01-15T00:56:35.218Z,0.00
2019-01-15T00:57:35.205Z,0.00
2019-01-15T00:58:35.195Z,0.00
2019-01-15T00:59:35.183Z,0.00
2019-01-15T01:00:35.172Z,0.00
2019-01-15T01:01:35.162Z,0.00
2019-01-15T01:02:35.155Z,0.00
2019-01-15T01:03:35.138Z,0.00
2019-01-15T01:04:35.128Z,0.00
2019-01-15T01:05:54.745Z,0.00
2019-01-15T01:07:17.152Z,0.00
2019-01-15T01:08:36.775Z,0.00
2019-01-15T01:09:59.177Z,0.00
2019-01-15T01:11:18.788Z,0.00
2019-01-15T01:12:31.137Z,0.00
2019-01-15T01:13:31.130Z,0.00
2019-01-15T01:14:31.117Z,0.00
2019-01-15T01:15:31.104Z,0.00
2019-01-15T01:16:31.094Z,0.00
2019-01-15T01:17:31.084Z,0.00
2019-01-15T01:18:31.072Z,0.00
2019-01-15T01:19:31.062Z,0.00
2019-01-15T01:20:31.086Z,0.00
2019-01-15T01:21:31.039Z,0.00
2019-01-15T01:22:31.028Z,0.00
2019-01-15T01:23:31.018Z,0.00
2019-01-15T01:24:31.007Z,0.00
2019-01-15T01:25:30.997Z,0.00
2019-01-15T01:26:30.985Z,0.00
2019-01-15T01:27:30.975Z,0.00
2019-01-15T01:28:30.984Z,0.00
2019-01-15T01:29:30.958Z,0.00
2019-01-15T01:30:30.949Z,0.00
2019-01-15T01:31:30.931Z,0.00
2019-01-15T01:32:30.921Z,0.00
2019-01-15T01:33:30.908Z,0.00
2019-01-15T01:34:30.900Z,0.00
2019-01-15T01:35:30.887Z,0.00
2019-01-15T01:36:30.877Z,0.00
2019-01-15T01:37:30.870Z,0.00
2019-01-15T01:38:30.858Z,0.00
2019-01-15T01:39:30.844Z,0.00
2019-01-15T01:40:30.832Z,0.00
2019-01-15T01:41:30.823Z,0.00
2019-01-15T01:42:30.811Z,0.00
2019-01-15T01:43:30.799Z,0.00
2019-01-15T01:44:30.790Z,0.00
2019-01-15T01:45:30.777Z,0.00
2019-01-15T01:46:30.767Z,0.00
2019-01-15T01:47:30.756Z,0.00
2019-01-15T01:48:30.746Z,0.00
2019-01-15T01:49:30.738Z,0.00
2019-01-15T01:50:30.724Z,0.00
2019-01-15T01:51:30.712Z,0.00
2019-01-15T01:52:30.706Z,0.00
2019-01-15T01:53:30.693Z,0.00
2019-01-15T01:54:30.680Z,0.00
2019-01-15T01:55:30.666Z,0.00
2019-01-15T01:56:30.658Z,0.00
2019-01-15T01:57:30.646Z,0.00
2019-01-15T01:58:30.640Z,0.00
2019-01-15T01:59:30.625Z,0.00
2019-01-15T02:00:30.612Z,0.00
2019-01-15T02:01:30.602Z,0.00
2019-01-15T02:02:30.591Z,0.00
2019-01-15T02:03:30.579Z,0.00
2019-01-15T02:04:30.570Z,0.00
2019-01-15T02:05:30.558Z,0.00
2019-01-15T02:06:30.547Z,0.00
2019-01-15T02:07:30.536Z,0.00
2019-01-15T02:08:30.524Z,0.00
2019-01-15T02:09:30.513Z,0.00
2019-01-15T02:10:30.502Z,0.00
2019-01-15T02:11:30.492Z,0.00
2019-01-15T02:12:36.648Z,0.00
2019-01-15T02:13:31.468Z,0.00
2019-01-15T02:14:30.458Z,0.00
2019-01-15T02:15:30.447Z,0.00
2019-01-15T02:16:30.437Z,0.00
2019-01-15T02:17:30.426Z,0.00
2019-01-15T02:18:30.416Z,0.00
2019-01-15T02:19:30.406Z,0.00
2019-01-15T02:20:30.393Z,0.00
2019-01-15T02:21:30.384Z,0.00
2019-01-15T02:22:30.371Z,0.00
2019-01-15T02:23:30.362Z,0.00
2019-01-15T02:24:30.349Z,0.00
2019-01-15T02:25:30.338Z,0.00
2019-01-15T02:26:30.329Z,0.00
2019-01-15T02:27:30.318Z,0.00
2019-01-15T02:28:30.307Z,0.00
2019-01-15T02:29:30.293Z,0.00
2019-01-15T02:30:30.283Z,0.00
2019-01-15T02:31:30.273Z,0.00
2019-01-15T02:32:30.262Z,0.00
2019-01-15T02:33:30.249Z,0.00
2019-01-15T02:34:30.248Z,0.00
2019-01-15T02:35:30.230Z,0.00
2019-01-15T02:36:30.217Z,0.00
2019-01-15T02:37:30.214Z,0.00
2019-01-15T02:38:30.197Z,0.00
2019-01-15T02:39:30.185Z,0.00
2019-01-15T02:40:30.174Z,0.00
2019-01-15T02:41:30.162Z,0.00
2019-01-15T02:42:30.151Z,0.00
2019-01-15T02:43:30.139Z,0.00
2019-01-15T02:44:30.129Z,0.00
2019-01-15T02:45:30.120Z,0.00
2019-01-15T02:46:30.110Z,0.00
2019-01-15T02:47:30.096Z,0.00
2019-01-15T02:48:30.085Z,0.00
2019-01-15T02:49:30.074Z,0.00
2019-01-15T02:50:30.063Z,0.00
2019-01-15T02:51:30.052Z,0.00
2019-01-15T02:52:30.041Z,0.00
2019-01-15T02:53:30.031Z,0.00
2019-01-15T02:54:30.018Z,0.00
2019-01-15T02:55:30.014Z,0.00
2019-01-15T02:56:29.998Z,0.00
2019-01-15T02:57:29.986Z,0.00
2019-01-15T02:58:29.979Z,0.00
2019-01-15T02:59:29.965Z,0.00
2019-01-15T03:00:29.952Z,0.00
2019-01-15T03:01:29.942Z,0.00
2019-01-15T03:02:29.932Z,0.00
2019-01-15T03:03:29.921Z,0.00
2019-01-15T03:04:29.910Z,0.00
2019-01-15T03:05:29.898Z,0.00
2019-01-15T03:06:29.887Z,0.00
2019-01-15T03:07:29.875Z,0.00
2019-01-15T03:08:29.867Z,0.00
2019-01-15T03:09:29.854Z,0.00
2019-01-15T03:10:29.846Z,0.00
2019-01-15T03:11:29.831Z,0.00
2019-01-15T03:12:29.820Z,0.00
2019-01-15T03:13:29.809Z,0.00
2019-01-15T03:14:29.799Z,0.00
2019-01-15T03:15:29.787Z,0.00
2019-01-15T03:16:29.777Z,0.00
2019-01-15T03:17:29.766Z,0.00
2019-01-15T03:18:29.756Z,0.00
2019-01-15T03:19:29.743Z,0.00
2019-01-15T03:20:29.732Z,0.00
2019-01-15T03:21:29.735Z,0.00
2019-01-15T03:22:29.713Z,0.00
2019-01-15T03:23:29.698Z,0.00
2019-01-15T03:24:29.691Z,0.00
2019-01-15T03:25:29.677Z,0.00
2019-01-15T03:26:29.670Z,0.00
2019-01-15T03:27:29.657Z,0.00
2019-01-15T03:28:29.649Z,0.00
2019-01-15T03:29:29.633Z,0.00
2019-01-15T03:30:29.625Z,0.00
2019-01-15T03:31:29.617Z,0.00
2019-01-15T03:32:29.603Z,0.00
2019-01-15T03:33:29.588Z,0.00
2019-01-15T03:34:49.205Z,0.00
2019-01-15T03:36:11.612Z,0.00
2019-01-15T03:37:11.601Z,0.00
2019-01-15T03:38:11.588Z,0.00
2019-01-15T03:39:31.204Z,0.00
2019-01-15T03:40:53.620Z,0.00
2019-01-15T03:41:53.600Z,0.00
2019-01-15T03:42:53.589Z,0.00
2019-01-15T03:43:53.589Z,0.00
2019-01-15T03:44:53.580Z,0.00
2019-01-15T03:45:53.556Z,0.00
2019-01-15T03:46:53.578Z,0.00
2019-01-15T03:47:53.536Z,0.00
2019-01-15T03:48:53.524Z,0.00
2019-01-15T03:49:53.513Z,0.00
2019-01-15T03:50:53.505Z,0.00
2019-01-15T03:51:53.492Z,0.00
2019-01-15T03:52:53.487Z,0.00
2019-01-15T03:53:53.468Z,0.00
2019-01-15T03:54:53.460Z,0.00
2019-01-15T03:55:53.446Z,0.00
2019-01-15T03:56:53.438Z,0.00
2019-01-15T03:57:53.424Z,0.00
2019-01-15T03:58:53.415Z,0.00
2019-01-15T03:59:53.404Z,0.00
2019-01-15T04:00:53.394Z,0.00
2019-01-15T04:01:53.382Z,0.00
2019-01-15T04:02:53.378Z,0.00
2019-01-15T04:03:53.361Z,0.00
2019-01-15T04:04:53.349Z,0.00
2019-01-15T04:05:53.340Z,0.00
2019-01-15T04:06:53.335Z,0.00
2019-01-15T04:07:53.326Z,0.00
2019-01-15T04:08:53.307Z,0.00
2019-01-15T04:09:53.293Z,0.00
2019-01-15T04:10:53.285Z,0.00
2019-01-15T04:11:53.274Z,0.00
2019-01-15T04:12:53.279Z,0.00
2019-01-15T04:13:53.258Z,0.00
2019-01-15T04:14:53.238Z,0.00
2019-01-15T04:15:53.226Z,0.00
2019-01-15T04:16:53.216Z,0.00
2019-01-15T04:17:53.206Z,0.00
2019-01-15T04:18:53.196Z,0.00
2019-01-15T04:19:53.184Z,0.00
2019-01-15T04:20:53.172Z,0.00
2019-01-15T04:21:53.160Z,0.00
2019-01-15T04:22:53.150Z,0.00
2019-01-15T04:23:53.139Z,0.00
2019-01-15T04:24:53.127Z,0.00
2019-01-15T04:25:53.121Z,0.00
2019-01-15T04:26:53.105Z,0.00
2019-01-15T04:27:53.093Z,0.00
2019-01-15T04:28:53.086Z,0.00
2019-01-15T04:29:53.072Z,0.00
2019-01-15T04:30:53.063Z,0.00
2019-01-15T04:31:53.050Z,0.00
2019-01-15T04:32:53.041Z,0.00
2019-01-15T04:33:53.029Z,0.00
2019-01-15T04:34:53.019Z,0.00
2019-01-15T04:35:53.006Z,0.00
2019-01-15T04:36:52.996Z,0.00
2019-01-15T04:37:52.986Z,0.00
2019-01-15T04:38:52.974Z,0.00
2019-01-15T04:39:52.962Z,0.00
2019-01-15T04:40:52.954Z,0.00
2019-01-15T04:41:52.939Z,0.00
2019-01-15T04:42:52.932Z,0.00
2019-01-15T04:43:52.920Z,0.00
2019-01-15T04:44:52.908Z,0.00
2019-01-15T04:45:52.896Z,0.00
2019-01-15T04:46:52.887Z,0.00
2019-01-15T04:47:52.876Z,0.00
2019-01-15T04:48:52.868Z,0.00
2019-01-15T04:49:52.852Z,0.00
2019-01-15T04:50:52.842Z,0.00
2019-01-15T04:51:52.831Z,0.00
2019-01-15T04:52:52.818Z,0.00
2019-01-15T04:53:52.810Z,0.00
2019-01-15T04:54:52.799Z,0.00
2019-01-15T04:55:52.786Z,0.00
2019-01-15T04:56:52.776Z,0.00
2019-01-15T04:57:52.763Z,0.00
2019-01-15T04:58:52.754Z,0.00
2019-01-15T04:59:52.742Z,0.00
2019-01-15T05:00:52.747Z,0.00
2019-01-15T05:01:52.718Z,0.00
2019-01-15T05:02:52.707Z,0.00
2019-01-15T05:03:52.698Z,0.00
2019-01-15T05:04:52.687Z,0.00
2019-01-15T05:05:52.674Z,0.00
2019-01-15T05:06:52.667Z,0.00
2019-01-15T05:07:52.664Z,0.00
2019-01-15T05:08:52.674Z,0.00
2019-01-15T05:09:52.632Z,0.00
2019-01-15T05:10:52.619Z,0.00
2019-01-15T05:11:52.607Z,0.00
2019-01-15T05:12:52.600Z,0.00
2019-01-15T05:13:52.592Z,0.00
2019-01-15T05:14:52.576Z,0.00
2019-01-15T05:15:52.563Z,0.00
2019-01-15T05:16:52.553Z,0.00
2019-01-15T05:17:52.540Z,0.00
2019-01-15T05:18:52.533Z,0.00
2019-01-15T05:19:52.518Z,0.00
2019-01-15T05:20:52.508Z,0.00
2019-01-15T05:21:52.496Z,0.00
2019-01-15T05:22:52.485Z,0.00
2019-01-15T05:23:52.476Z,0.00
2019-01-15T05:24:52.463Z,0.00
2019-01-15T05:25:52.458Z,0.00
2019-01-15T05:26:52.440Z,0.00
2019-01-15T05:27:52.430Z,0.00
2019-01-15T05:28:52.418Z,0.00
2019-01-15T05:29:52.408Z,0.00
2019-01-15T05:30:52.408Z,0.00
2019-01-15T05:31:52.385Z,0.00
2019-01-15T05:32:52.379Z,0.00
2019-01-15T05:33:52.363Z,0.00
2019-01-15T05:34:52.351Z,0.00
2019-01-15T05:35:52.343Z,0.00
2019-01-15T05:36:52.329Z,0.00
2019-01-15T05:37:52.316Z,0.00
2019-01-15T05:38:52.307Z,0.00
2019-01-15T05:39:52.299Z,0.00
2019-01-15T05:40:52.283Z,0.00
2019-01-15T05:41:52.272Z,0.00
2019-01-15T05:42:52.263Z,0.00
2019-01-15T05:43:52.252Z,0.00
2019-01-15T05:44:52.239Z,0.00
2019-01-15T05:45:52.229Z,0.00
2019-01-15T05:46:52.217Z,0.00
2019-01-15T05:47:52.206Z,0.00
2019-01-15T05:48:52.215Z,0.00
2019-01-15T05:49:52.184Z,0.00
2019-01-15T05:50:52.176Z,0.00
2019-01-15T05:51:52.163Z,0.00
2019-01-15T05:52:52.153Z,0.00
2019-01-15T05:53:52.140Z,0.00
2019-01-15T05:54:52.133Z,0.00
2019-01-15T05:55:52.121Z,0.00
2019-01-15T05:56:52.109Z,0.00
2019-01-15T05:57:52.094Z,0.00
2019-01-15T05:58:52.084Z,0.00
2019-01-15T05:59:52.075Z,0.00
2019-01-15T06:00:52.065Z,0.00
2019-01-15T06:01:52.053Z,0.00
2019-01-15T06:02:52.042Z,0.00
2019-01-15T06:03:52.029Z,0.00
2019-01-15T06:04:52.026Z,0.00
2019-01-15T06:05:52.007Z,0.00
2019-01-15T06:06:51.998Z,0.00
2019-01-15T06:07:51.984Z,0.00
2019-01-15T06:08:51.977Z,0.00
2019-01-15T06:09:51.962Z,0.00
2019-01-15T06:10:51.951Z,0.00
2019-01-15T06:11:51.940Z,0.00
2019-01-15T06:12:51.937Z,0.00
2019-01-15T06:13:51.917Z,0.00
2019-01-15T06:14:51.905Z,0.00
2019-01-15T06:15:51.898Z,0.00
2019-01-15T06:16:51.884Z,0.00
2019-01-15T06:17:51.873Z,0.00
2019-01-15T06:18:51.861Z,0.00
2019-01-15T06:19:51.851Z,0.00
2019-01-15T06:20:51.840Z,0.00
2019-01-15T06:21:51.835Z,0.00
2019-01-15T06:22:51.822Z,0.00
2019-01-15T06:23:51.807Z,0.00
2019-01-15T06:24:51.800Z,0.00
2019-01-15T06:25:51.785Z,0.00
2019-01-15T06:26:51.775Z,0.00
2019-01-15T06:27:51.762Z,0.00
2019-01-15T06:28:51.751Z,0.00
2019-01-15T06:29:51.739Z,0.00
2019-01-15T06:30:51.732Z,0.00
2019-01-15T06:31:51.718Z,0.00
2019-01-15T06:32:51.707Z,0.00
2019-01-15T06:33:51.697Z,0.00
2019-01-15T06:34:51.686Z,0.00
2019-01-15T06:35:51.676Z,0.00
2019-01-15T06:36:51.663Z,0.00
2019-01-15T06:37:51.652Z,0.00
2019-01-15T06:38:51.641Z,0.00
2019-01-15T06:39:51.630Z,0.00
2019-01-15T06:40:51.619Z,0.00
2019-01-15T06:41:51.606Z,0.00
2019-01-15T06:42:51.597Z,0.00
2019-01-15T06:43:51.585Z,0.00
2019-01-15T06:44:51.574Z,0.00
2019-01-15T06:45:51.563Z,0.00
2019-01-15T06:46:51.552Z,0.00
2019-01-15T06:47:51.541Z,0.00
2019-01-15T06:48:51.530Z,0.00
2019-01-15T06:49:51.519Z,0.00
2019-01-15T06:50:51.510Z,0.00
2019-01-15T06:51:51.496Z,0.00
2019-01-15T06:52:51.486Z,0.00
2019-01-15T06:53:51.475Z,0.00
2019-01-15T06:54:51.464Z,0.00
2019-01-15T06:55:51.453Z,0.00
2019-01-15T06:56:51.442Z,0.00
2019-01-15T06:57:51.429Z,0.00
2019-01-15T06:58:51.420Z,0.00
2019-01-15T06:59:51.409Z,0.00
2019-01-15T07:00:51.397Z,0.00
2019-01-15T07:01:51.385Z,0.00
2019-01-15T07:02:51.375Z,0.00
2019-01-15T07:03:51.363Z,0.00
2019-01-15T07:04:51.352Z,0.00
2019-01-15T07:05:51.348Z,0.00
2019-01-15T07:06:51.331Z,0.00
2019-01-15T07:07:51.322Z,0.00
2019-01-15T07:08:51.306Z,0.00
2019-01-15T07:09:51.304Z,0.00
2019-01-15T07:10:51.293Z,0.00
2019-01-15T07:11:51.273Z,0.00
2019-01-15T07:12:51.264Z,0.00
2019-01-15T07:13:56.989Z,0.00
2019-01-15T07:14:52.242Z,0.00
2019-01-15T07:15:51.231Z,5.62
2019-01-15T07:16:51.220Z,5.62
2019-01-15T07:17:51.208Z,5.62
2019-01-15T07:18:51.198Z,5.62
2019-01-15T07:19:51.185Z,5.62
2019-01-15T07:20:51.175Z,5.62
2019-01-15T07:21:51.163Z,5.62
2019-01-15T07:22:51.156Z,5.62
2019-01-15T07:23:51.142Z,5.62
2019-01-15T07:24:51.131Z,11.25
2019-01-15T07:25:51.119Z,5.62
2019-01-15T07:26:51.109Z,11.25
2019-01-15T07:27:51.099Z,11.25
2019-01-15T07:28:51.087Z,16.88
2019-01-15T07:29:51.075Z,16.88
2019-01-15T07:30:51.067Z,16.88
2019-01-15T07:31:51.061Z,11.25
2019-01-15T07:32:51.046Z,16.88
2019-01-15T07:33:51.034Z,22.50
2019-01-15T07:34:51.021Z,22.50
2019-01-15T07:35:51.008Z,28.12
2019-01-15T07:36:50.999Z,22.50
2019-01-15T07:37:50.988Z,22.50
2019-01-15T07:38:50.977Z,16.88
2019-01-15T07:39:50.967Z,16.88
2019-01-15T07:40:50.952Z,16.88
2019-01-15T07:41:50.943Z,16.88
2019-01-15T07:42:50.933Z,16.88
2019-01-15T07:43:50.922Z,11.25
2019-01-15T07:44:50.910Z,11.25
2019-01-15T07:45:50.899Z,16.88
2019-01-15T07:46:50.889Z,16.88
2019-01-15T07:47:50.877Z,16.88
2019-01-15T07:48:50.915Z,16.88
2019-01-15T07:49:50.854Z,22.50
2019-01-15T07:50:50.842Z,16.88
2019-01-15T07:51:50.877Z,11.25
2019-01-15T07:52:50.823Z,16.88
2019-01-15T07:53:50.811Z,16.88
2019-01-15T07:54:50.801Z,22.50
2019-01-15T07:55:50.788Z,22.50
2019-01-15T07:56:50.780Z,22.50
2019-01-15T07:57:50.767Z,22.50
2019-01-15T07:58:50.754Z,16.88
2019-01-15T07:59:50.742Z,22.50
2019-01-15T08:00:50.733Z,22.50
2019-01-15T08:01:50.720Z,33.75
2019-01-15T08:02:50.711Z,22.50
2019-01-15T08:03:50.700Z,22.50
2019-01-15T08:04:52.194Z,22.50
2019-01-15T08:05:50.684Z,22.50
2019-01-15T08:06:50.671Z,22.50
2019-01-15T08:07:50.654Z,16.88
2019-01-15T08:08:50.642Z,22.50
2019-01-15T08:09:50.631Z,22.50
2019-01-15T08:10:56.923Z,22.50
2019-01-15T08:11:51.612Z,22.50
2019-01-15T08:12:50.607Z,22.50
2019-01-15T08:13:50.592Z,28.12
2019-01-15T08:14:50.579Z,28.12
2019-01-15T08:15:50.566Z,22.50
2019-01-15T08:16:50.554Z,22.50
2019-01-15T08:17:50.544Z,16.88
2019-01-15T08:18:50.531Z,16.88
2019-01-15T08:19:50.520Z,16.88
2019-01-15T08:20:50.511Z,16.88
2019-01-15T08:21:50.500Z,16.88
2019-01-15T08:22:50.495Z,16.88
2019-01-15T08:23:50.478Z,16.88
2019-01-15T08:24:50.469Z,22.50
2019-01-15T08:25:50.455Z,22.50
2019-01-15T08:26:50.445Z,22.50
2019-01-15T08:27:50.432Z,22.50
2019-01-15T08:28:50.421Z,22.50
2019-01-15T08:29:50.413Z,22.50
2019-01-15T08:30:50.399Z,22.50
2019-01-15T08:31:50.387Z,16.88
2019-01-15T08:32:50.376Z,16.88
2019-01-15T08:33:50.366Z,16.88
2019-01-15T08:34:50.356Z,16.88
2019-01-15T08:35:50.344Z,16.88
2019-01-15T08:36:50.333Z,11.25
2019-01-15T08:37:50.325Z,16.88
2019-01-15T08:38:50.310Z,22.50
2019-01-15T08:39:50.300Z,28.12
2019-01-15T08:40:50.288Z,22.50
2019-01-15T08:41:50.279Z,22.50
2019-01-15T08:42:50.271Z,22.50
2019-01-15T08:43:50.256Z,16.88
2019-01-15T08:44:50.242Z,16.88
2019-01-15T08:45:50.233Z,22.50
2019-01-15T08:46:50.221Z,22.50
2019-01-15T08:47:50.389Z,22.50
2019-01-15T08:48:50.198Z,22.50
2019-01-15T08:49:50.191Z,22.50
2019-01-15T08:50:50.179Z,22.50
2019-01-15T08:51:50.167Z,16.88
2019-01-15T08:52:50.155Z,16.88
2019-01-15T08:53:50.144Z,16.88
2019-01-15T08:54:50.137Z,22.50
2019-01-15T08:55:50.124Z,22.50
2019-01-15T08:56:50.112Z,28.12
2019-01-15T08:57:50.104Z,28.12
2019-01-15T08:58:50.089Z,28.12
2019-01-15T08:59:50.076Z,22.50
2019-01-15T09:00:50.066Z,28.12
2019-01-15T09:01:50.054Z,28.12
2019-01-15T09:02:50.047Z,28.12
2019-01-15T09:03:50.032Z,28.12
2019-01-15T09:04:50.023Z,33.75
2019-01-15T09:05:50.011Z,28.12
2019-01-15T09:06:50.001Z,22.50
2019-01-15T09:07:49.989Z,22.50
2019-01-15T09:08:49.978Z,16.88
2019-01-15T09:09:49.966Z,22.50
2019-01-15T09:10:49.955Z,16.88
2019-01-15T09:11:49.944Z,22.50
2019-01-15T09:12:49.934Z,28.12
2019-01-15T09:13:49.923Z,28.12
2019-01-15T09:14:49.915Z,33.75
2019-01-15T09:15:49.903Z,33.75
2019-01-15T09:16:49.891Z,33.75
2019-01-15T09:17:49.878Z,28.12
2019-01-15T09:18:49.866Z,28.12
2019-01-15T09:19:49.856Z,33.75
2019-01-15T09:20:49.851Z,45.00
2019-01-15T09:21:49.834Z,45.00
2019-01-15T09:22:49.822Z,39.38
2019-01-15T09:23:49.811Z,45.00
2019-01-15T09:24:49.803Z,39.38
2019-01-15T09:25:49.791Z,45.00
2019-01-15T09:26:49.780Z,28.12
2019-01-15T09:27:49.767Z,22.50
2019-01-15T09:28:49.754Z,22.50
2019-01-15T09:29:49.745Z,22.50
2019-01-15T09:30:49.734Z,22.50
2019-01-15T09:31:49.723Z,22.50
2019-01-15T09:32:49.712Z,33.75
2019-01-15T09:33:49.755Z,28.12
2019-01-15T09:34:49.690Z,33.75
2019-01-15T09:35:49.679Z,45.00
2019-01-15T09:36:49.668Z,39.38
2019-01-15T09:37:49.656Z,28.12
2019-01-15T09:38:49.643Z,28.12
2019-01-15T09:39:49.632Z,22.50
2019-01-15T09:40:49.622Z,22.50
2019-01-15T09:41:49.610Z,33.75
2019-01-15T09:42:49.611Z,39.38
2019-01-15T09:43:49.590Z,67.50
2019-01-15T09:44:49.579Z,90.00
2019-01-15T09:45:49.566Z,95.62
2019-01-15T09:46:49.554Z,90.00
2019-01-15T09:47:49.545Z,73.12
2019-01-15T09:48:49.535Z,61.88
2019-01-15T09:49:49.523Z,67.50
2019-01-15T09:50:49.513Z,135.00
2019-01-15T09:51:49.500Z,135.00
2019-01-15T09:52:49.491Z,106.88
2019-01-15T09:53:49.479Z,101.25
2019-01-15T09:54:49.471Z,78.75
2019-01-15T09:55:49.457Z,56.25
2019-01-15T09:56:49.447Z,50.62
2019-01-15T09:57:49.432Z,45.00
2019-01-15T09:58:49.438Z,45.00
2019-01-15T09:59:49.414Z,50.62
2019-01-15T10:00:49.400Z,50.62
2019-01-15T10:01:49.398Z,50.62
2019-01-15T10:02:49.384Z,56.25
2019-01-15T10:03:49.366Z,67.50
2019-01-15T10:04:49.355Z,112.50
2019-01-15T10:05:49.348Z,123.75
2019-01-15T10:06:49.334Z,90.00
2019-01-15T10:07:49.322Z,84.38
2019-01-15T10:08:49.310Z,84.38
2019-01-15T10:09:49.299Z,84.38
2019-01-15T10:10:49.289Z,56.25
2019-01-15T10:11:49.281Z,50.62
2019-01-15T10:12:49.272Z,67.50
2019-01-15T10:13:49.257Z,73.12
2019-01-15T10:14:49.246Z,84.38
2019-01-15T10:15:49.237Z,118.12
2019-01-15T10:16:49.225Z,106.88
2019-01-15T10:17:49.212Z,67.50
2019-01-15T10:18:49.201Z,67.50
2019-01-15T10:19:49.190Z,67.50
2019-01-15T10:20:49.181Z,56.25
2019-01-15T10:21:49.170Z,56.25
2019-01-15T10:22:49.155Z,56.25
2019-01-15T10:23:49.144Z,73.12
2019-01-15T10:24:49.133Z,67.50
2019-01-15T10:25:49.123Z,73.12
2019-01-15T10:26:49.110Z,123.75
2019-01-15T10:27:49.100Z,140.62
2019-01-15T10:28:49.090Z,95.62
2019-01-15T10:29:49.077Z,78.75
2019-01-15T10:30:49.067Z,56.25
2019-01-15T10:31:49.056Z,61.88
2019-01-15T10:32:49.044Z,84.38
2019-01-15T10:33:49.037Z,140.62
2019-01-15T10:34:49.024Z,151.88
2019-01-15T10:35:49.016Z,135.00
2019-01-15T10:36:49.004Z,101.25
2019-01-15T10:37:48.989Z,95.62
2019-01-15T10:38:48.978Z,101.25
2019-01-15T10:39:48.967Z,90.00
2019-01-15T10:40:48.956Z,73.12
2019-01-15T10:41:48.946Z,67.50
2019-01-15T10:42:48.934Z,84.38
2019-01-15T10:43:48.923Z,84.38
2019-01-15T10:44:49.009Z,112.50
2019-01-15T10:45:48.900Z,67.50
2019-01-15T10:46:48.890Z,61.88
2019-01-15T10:47:48.879Z,67.50
2019-01-15T10:48:48.867Z,90.00
2019-01-15T10:49:48.857Z,118.12
2019-01-15T10:50:48.846Z,112.50
2019-01-15T10:51:48.832Z,123.75
2019-01-15T10:52:48.822Z,118.12
2019-01-15T10:53:48.811Z,106.88
2019-01-15T10:54:48.799Z,101.25
2019-01-15T10:55:48.792Z,95.62
2019-01-15T10:56:48.779Z,90.00
2019-01-15T10:57:48.767Z,95.62
2019-01-15T10:58:48.756Z,78.75
2019-01-15T10:59:48.745Z,67.50
2019-01-15T11:00:48.733Z,84.38
2019-01-15T11:01:48.722Z,90.00
2019-01-15T11:02:48.711Z,112.50
2019-01-15T11:03:48.700Z,135.00
2019-01-15T11:04:48.687Z,135.00
2019-01-15T11:05:48.679Z,123.75
2019-01-15T11:06:48.666Z,95.62
2019-01-15T11:07:48.658Z,90.00
2019-01-15T11:08:48.645Z,90.00
2019-01-15T11:09:48.634Z,84.38
2019-01-15T11:10:48.624Z,78.75
2019-01-15T11:11:48.656Z,95.62
2019-01-15T11:12:48.599Z,90.00
2019-01-15T11:13:48.589Z,95.62
2019-01-15T11:14:55.873Z,123.75
2019-01-15T11:15:49.564Z,146.25
2019-01-15T11:16:48.553Z,129.38
2019-01-15T11:17:48.548Z,78.75
2019-01-15T11:18:48.533Z,67.50
2019-01-15T11:19:48.526Z,56.25
2019-01-15T11:20:48.512Z,61.88
2019-01-15T11:21:48.500Z,73.12
2019-01-15T11:22:48.488Z,61.88
2019-01-15T11:23:48.478Z,67.50
2019-01-15T11:24:48.467Z,73.12
2019-01-15T11:25:48.456Z,73.12
2019-01-15T11:26:48.445Z,61.88
2019-01-15T11:27:48.436Z,95.62
2019-01-15T11:28:48.423Z,90.00
2019-01-15T11:29:48.419Z,90.00
2019-01-15T11:30:48.400Z,78.75
2019-01-15T11:31:48.390Z,78.75
2019-01-15T11:32:48.379Z,67.50
2019-01-15T11:33:48.369Z,61.88
2019-01-15T11:34:48.355Z,50.62
2019-01-15T11:35:48.349Z,50.62
2019-01-15T11:36:48.332Z,45.00
2019-01-15T11:37:48.324Z,50.62
2019-01-15T11:38:48.311Z,50.62
2019-01-15T11:39:48.302Z,56.25
2019-01-15T11:40:48.290Z,50.62
2019-01-15T11:41:48.277Z,56.25
2019-01-15T11:42:48.268Z,50.62
2019-01-15T11:43:48.256Z,50.62
2019-01-15T11:44:48.247Z,45.00
2019-01-15T11:45:48.252Z,50.62
2019-01-15T11:46:48.223Z,45.00
2019-01-15T11:47:48.212Z,50.62
2019-01-15T11:48:48.202Z,39.38
2019-01-15T11:49:48.190Z,28.12
2019-01-15T11:50:48.178Z,28.12
2019-01-15T11:51:48.168Z,33.75
2019-01-15T11:52:48.155Z,33.75
2019-01-15T11:53:48.143Z,39.38
2019-01-15T11:54:48.133Z,45.00
2019-01-15T11:55:48.122Z,39.38
2019-01-15T11:56:48.111Z,39.38
2019-01-15T11:57:48.098Z,45.00
2019-01-15T11:58:48.087Z,50.62
2019-01-15T11:59:48.079Z,50.62
2019-01-15T12:00:48.068Z,61.88
2019-01-15T12:01:48.056Z,67.50
2019-01-15T12:02:48.048Z,67.50
2019-01-15T12:03:48.041Z,84.38
2019-01-15T12:04:48.028Z,84.38
2019-01-15T12:05:48.011Z,78.75
2019-01-15T12:06:48.000Z,67.50
2019-01-15T12:07:47.989Z,84.38
2019-01-15T12:08:47.976Z,61.88
2019-01-15T12:09:47.967Z,73.12
2019-01-15T12:10:47.956Z,61.88
2019-01-15T12:11:47.949Z,67.50
2019-01-15T12:12:47.934Z,61.88
2019-01-15T12:13:47.922Z,78.75
2019-01-15T12:14:47.912Z,61.88
2019-01-15T12:15:47.901Z,73.12
2019-01-15T12:16:47.889Z,73.12
2019-01-15T12:17:47.876Z,84.38
2019-01-15T12:18:47.889Z,84.38
2019-01-15T12:19:47.855Z,78.75
2019-01-15T12:20:47.845Z,84.38
2019-01-15T12:21:47.838Z,101.25
2019-01-15T12:22:47.822Z,78.75
2019-01-15T12:23:47.825Z,84.38
2019-01-15T12:24:47.801Z,73.12
2019-01-15T12:25:47.825Z,73.12
2019-01-15T12:26:47.782Z,73.12
2019-01-15T12:27:47.799Z,61.88
2019-01-15T12:28:47.771Z,61.88
2019-01-15T12:29:47.753Z,61.88
2019-01-15T12:30:47.732Z,67.50
2019-01-15T12:31:47.755Z,61.88
2019-01-15T12:32:47.711Z,67.50
2019-01-15T12:33:47.700Z,73.12
2019-01-15T12:34:47.690Z,56.25
2019-01-15T12:35:47.679Z,50.62
2019-01-15T12:36:47.667Z,45.00
2019-01-15T12:37:47.656Z,45.00
2019-01-15T12:38:47.702Z,45.00
2019-01-15T12:39:47.636Z,50.62
2019-01-15T12:40:47.636Z,67.50
2019-01-15T12:41:47.631Z,56.25
2019-01-15T12:42:47.600Z,50.62
2019-01-15T12:43:47.589Z,61.88
2019-01-15T12:44:47.578Z,50.62
2019-01-15T12:45:47.598Z,50.62
2019-01-15T12:46:47.556Z,56.25
2019-01-15T12:47:47.544Z,50.62
2019-01-15T12:48:47.534Z,56.25
2019-01-15T12:49:47.524Z,50.62
2019-01-15T12:50:47.511Z,45.00
2019-01-15T12:51:47.500Z,50.62
2019-01-15T12:52:47.489Z,50.62
2019-01-15T12:53:47.477Z,45.00
2019-01-15T12:54:47.465Z,50.62
2019-01-15T12:55:47.456Z,56.25
2019-01-15T12:56:47.445Z,45.00
2019-01-15T12:57:47.437Z,50.62
2019-01-15T12:58:47.420Z,45.00
2019-01-15T12:59:47.409Z,39.38
2019-01-15T13:00:47.401Z,39.38
2019-01-15T13:01:47.389Z,45.00
2019-01-15T13:02:47.378Z,45.00
2019-01-15T13:03:47.367Z,39.38
2019-01-15T13:04:47.356Z,39.38
2019-01-15T13:05:47.345Z,33.75
2019-01-15T13:06:47.341Z,28.12
2019-01-15T13:07:47.321Z,33.75
2019-01-15T13:08:47.311Z,28.12